createdAt,value
2018-06-28T00:02:23.290Z,99.90
2018-06-28T00:04:51.635Z,99.90
2018-06-28T00:07:19.963Z,99.90
2018-06-28T00:09:48.341Z,99.90
2018-06-28T00:12:18.309Z,99.90
2018-06-28T00:14:46.653Z,99.90
2018-06-28T00:17:14.991Z,99.90
2018-06-28T00:19:43.298Z,99.90
2018-06-28T00:22:12.010Z,99.90
2018-06-28T00:24:40.324Z,99.90
2018-06-28T00:27:08.638Z,99.90
2018-06-28T00:29:36.976Z,99.90
2018-06-28T00:32:05.848Z,99.90
2018-06-28T00:34:34.167Z,99.90
2018-06-28T00:37:02.630Z,99.90
2018-06-28T00:39:30.936Z,99.90
2018-06-28T00:41:59.266Z,99.90
2018-06-28T00:44:27.614Z,99.90
2018-06-28T00:46:56.282Z,99.90
2018-06-28T00:49:24.613Z,99.90
2018-06-28T00:51:52.963Z,99.90
2018-06-28T00:54:21.604Z,99.90
2018-06-28T00:56:50.187Z,99.90
2018-06-28T00:59:18.516Z,99.90
2018-06-28T01:01:46.812Z,99.90
2018-06-28T01:04:15.121Z,99.90
2018-06-28T01:06:43.499Z,99.90
2018-06-28T01:09:12.829Z,99.90
2018-06-28T01:11:41.499Z,99.90
2018-06-28T01:14:09.901Z,99.90
2018-06-28T01:16:38.408Z,99.90
2018-06-28T01:19:07.422Z,99.90
2018-06-28T01:21:35.757Z,99.90
2018-06-28T01:24:04.362Z,99.90
2018-06-28T01:26:33.046Z,99.90
2018-06-28T01:29:01.571Z,99.90
2018-06-28T01:31:29.896Z,99.90
2018-06-28T01:33:58.212Z,99.90
2018-06-28T01:36:26.893Z,99.90
2018-06-28T01:38:55.326Z,99.90
2018-06-28T01:41:23.970Z,99.90
2018-06-28T01:43:52.274Z,99.90
2018-06-28T01:46:20.609Z,99.90
2018-06-28T01:48:48.895Z,99.90
2018-06-28T01:51:17.235Z,99.90
2018-06-28T01:53:45.519Z,99.90
2018-06-28T01:56:14.203Z,99.90
2018-06-28T01:58:42.774Z,99.90
2018-06-28T02:01:11.120Z,99.90
2018-06-28T02:03:39.776Z,99.90
2018-06-28T02:06:08.090Z,99.90
2018-06-28T02:08:36.451Z,99.90
2018-06-28T02:11:04.774Z,99.90
2018-06-28T02:13:33.107Z,99.90
2018-06-28T02:16:01.444Z,99.90
2018-06-28T02:18:29.783Z,99.90
2018-06-28T02:20:58.163Z,99.90
2018-06-28T02:23:26.524Z,99.90
2018-06-28T02:25:55.187Z,99.90
2018-06-28T02:28:23.521Z,99.90
2018-06-28T02:30:51.883Z,99.90
2018-06-28T02:33:20.502Z,99.90
2018-06-28T02:35:48.827Z,99.90
2018-06-28T02:38:17.162Z,99.90
2018-06-28T02:40:45.842Z,99.90
2018-06-28T02:43:14.146Z,99.90
2018-06-28T02:45:42.487Z,99.90
2018-06-28T02:48:11.036Z,99.90
2018-06-28T02:50:39.363Z,99.90
2018-06-28T02:54:37.144Z,99.90
2018-06-28T02:57:05.818Z,99.90
2018-06-28T02:59:34.175Z,99.90
2018-06-28T03:02:02.556Z,99.90
2018-06-28T03:04:30.859Z,99.90
2018-06-28T03:06:59.215Z,99.90
2018-06-28T03:09:27.463Z,99.90
2018-06-28T03:11:55.786Z,99.90
2018-06-28T03:14:24.115Z,99.90
2018-06-28T03:16:52.469Z,99.90
2018-06-28T03:19:20.764Z,99.90
2018-06-28T03:21:49.091Z,99.90
2018-06-28T03:24:17.647Z,99.90
2018-06-28T03:26:46.038Z,99.90
2018-06-28T03:29:14.520Z,99.90
2018-06-28T03:31:42.819Z,99.90
2018-06-28T03:34:11.182Z,99.90
2018-06-28T03:36:39.769Z,99.90
2018-06-28T03:39:11.020Z,99.90
2018-06-28T03:41:39.609Z,99.90
2018-06-28T03:44:08.239Z,99.90
2018-06-28T03:46:36.573Z,99.90
2018-06-28T03:49:05.251Z,99.90
2018-06-28T03:51:33.586Z,99.90
2018-06-28T03:54:01.911Z,99.90
2018-06-28T03:56:30.268Z,99.90
2018-06-28T03:58:58.628Z,99.90
2018-06-28T04:06:23.688Z,99.90
2018-06-28T04:08:52.568Z,99.90
2018-06-28T04:11:20.923Z,99.90
2018-06-28T04:13:49.246Z,99.90
2018-06-28T04:18:46.070Z,99.90
2018-06-28T04:21:14.656Z,99.90
2018-06-28T04:23:43.013Z,99.90
2018-06-28T04:26:11.595Z,99.90
2018-06-28T04:28:39.943Z,99.90
2018-06-28T04:33:36.344Z,99.90
2018-06-28T04:36:05.066Z,99.90
2018-06-28T04:38:33.396Z,99.90
2018-06-28T04:41:02.155Z,99.90
2018-06-28T04:43:31.315Z,99.90
2018-06-28T04:45:59.665Z,99.90
2018-06-28T04:48:28.019Z,99.90
2018-06-28T04:50:56.376Z,99.90
2018-06-28T04:53:24.723Z,99.90
2018-06-28T04:55:53.092Z,99.90
2018-06-28T04:58:21.409Z,99.90
2018-06-28T05:00:49.745Z,99.90
2018-06-28T05:03:18.087Z,99.90
2018-06-28T05:05:46.406Z,99.90
2018-06-28T05:08:14.762Z,99.90
2018-06-28T05:10:43.077Z,99.90
2018-06-28T05:13:11.411Z,99.90
2018-06-28T05:15:39.742Z,99.90
2018-06-28T05:18:08.092Z,99.90
2018-06-28T05:20:36.452Z,99.90
2018-06-28T05:23:04.849Z,99.90
2018-06-28T05:25:33.326Z,99.90
2018-06-28T05:28:01.678Z,99.90
2018-06-28T05:32:58.084Z,99.90
2018-06-28T05:35:26.464Z,99.90
2018-06-28T05:37:54.815Z,99.90
2018-06-28T05:40:23.250Z,99.90
2018-06-28T05:42:51.567Z,99.90
2018-06-28T05:45:19.858Z,99.90
2018-06-28T05:47:48.450Z,99.90
2018-06-28T05:50:17.684Z,99.90
2018-06-28T05:52:45.931Z,99.90
2018-06-28T05:55:14.770Z,99.90
2018-06-28T05:57:43.790Z,99.90
2018-06-28T06:00:12.661Z,99.90
2018-06-28T06:02:41.487Z,99.90
2018-06-28T06:05:10.069Z,99.90
2018-06-28T06:07:38.951Z,99.90
2018-06-28T06:10:07.803Z,99.90
2018-06-28T06:12:36.677Z,99.90
2018-06-28T06:15:05.550Z,99.90
2018-06-28T06:17:34.390Z,99.90
2018-06-28T06:20:03.360Z,99.90
2018-06-28T06:22:32.205Z,99.90
2018-06-28T06:25:01.404Z,99.90
2018-06-28T06:27:30.330Z,99.90
2018-06-28T06:29:59.261Z,99.90
2018-06-28T06:32:28.431Z,99.90
2018-06-28T06:34:57.294Z,99.90
2018-06-28T06:39:54.656Z,99.90
2018-06-28T06:43:52.838Z,99.90
2018-06-28T06:46:22.029Z,99.90
2018-06-28T06:48:50.959Z,99.90
2018-06-28T06:53:49.211Z,99.90
2018-06-28T06:56:18.062Z,99.90
2018-06-28T06:58:46.861Z,99.90
2018-06-28T07:01:15.728Z,99.70
2018-06-28T07:03:44.286Z,99.10
2018-06-28T07:06:13.565Z,99.20
2018-06-28T07:08:42.604Z,98.90
2018-06-28T07:11:12.127Z,98.40
2018-06-28T07:13:40.987Z,98.30
2018-06-28T07:16:09.929Z,96.90
2018-06-28T07:18:38.849Z,96.00
2018-06-28T07:21:07.786Z,95.70
2018-06-28T07:23:36.915Z,96.50
2018-06-28T07:26:05.968Z,95.20
2018-06-28T07:28:35.104Z,95.80
2018-06-28T07:31:04.158Z,95.70
2018-06-28T07:33:33.292Z,93.80
2018-06-28T07:36:02.204Z,95.20
2018-06-28T07:38:31.094Z,94.80
2018-06-28T07:41:00.017Z,95.40
2018-06-28T07:43:29.111Z,95.50
2018-06-28T07:45:58.053Z,94.80
2018-06-28T07:48:26.991Z,95.30
2018-06-28T07:50:55.871Z,94.60
2018-06-28T07:53:24.759Z,95.50
2018-06-28T07:55:53.636Z,95.00
2018-06-28T07:58:22.709Z,95.00
2018-06-28T08:00:51.757Z,93.80
2018-06-28T08:03:20.096Z,94.50
2018-06-28T08:08:17.839Z,94.90
2018-06-28T08:10:46.729Z,94.70
2018-06-28T08:13:15.660Z,94.20
2018-06-28T08:15:44.587Z,93.40
2018-06-28T08:20:42.344Z,92.90
2018-06-28T08:23:11.234Z,93.00
2018-06-28T08:25:40.144Z,92.70
2018-06-28T08:28:09.430Z,90.60
2018-06-28T08:30:38.370Z,91.40
2018-06-28T08:33:07.311Z,92.00
2018-06-28T08:35:36.257Z,92.10
2018-06-28T08:38:05.217Z,91.00
2018-06-28T08:40:34.193Z,90.80
2018-06-28T08:43:03.486Z,86.80
2018-06-28T08:45:32.806Z,87.00
2018-06-28T08:48:01.783Z,87.70
2018-06-28T08:50:30.774Z,87.40
2018-06-28T08:52:59.769Z,89.60
2018-06-28T08:55:28.702Z,87.80
2018-06-28T08:57:57.698Z,88.20
2018-06-28T09:00:26.730Z,88.00
2018-06-28T09:02:55.675Z,84.90
2018-06-28T09:05:24.219Z,82.50
2018-06-28T09:07:53.126Z,81.70
2018-06-28T09:10:21.982Z,81.80
2018-06-28T09:12:51.076Z,81.60
2018-06-28T09:15:20.024Z,73.70
2018-06-28T09:17:49.048Z,76.40
2018-06-28T09:20:18.340Z,78.60
2018-06-28T09:22:59.749Z,71.60
2018-06-28T09:25:28.748Z,76.50
2018-06-28T09:27:57.615Z,77.90
2018-06-28T09:30:29.818Z,78.60
2018-06-28T09:32:58.718Z,74.90
2018-06-28T09:35:27.659Z,75.80
2018-06-28T09:40:26.699Z,76.00
2018-06-28T09:42:55.947Z,68.10
2018-06-28T09:45:25.601Z,67.70
2018-06-28T09:47:55.265Z,71.00
2018-06-28T09:50:36.509Z,71.40
2018-06-28T09:53:05.420Z,68.60
2018-06-28T09:55:34.268Z,68.60
2018-06-28T09:58:03.403Z,68.60
2018-06-28T10:00:37.710Z,69.20
2018-06-28T10:05:35.380Z,70.30
2018-06-28T10:08:04.344Z,70.00
2018-06-28T10:10:33.196Z,73.20
2018-06-28T10:13:02.414Z,68.30
2018-06-28T10:15:31.311Z,65.80
2018-06-28T10:18:00.302Z,71.20
2018-06-28T10:20:29.833Z,68.10
2018-06-28T10:22:58.784Z,72.30
2018-06-28T10:25:27.722Z,67.30
2018-06-28T10:27:56.647Z,66.80
2018-06-28T10:30:25.270Z,69.10
2018-06-28T10:32:53.959Z,68.20
2018-06-28T10:35:22.682Z,65.30
2018-06-28T10:37:51.797Z,67.30
2018-06-28T10:40:21.114Z,66.30
2018-06-28T10:42:50.018Z,63.60
2018-06-28T10:45:19.352Z,64.70
2018-06-28T10:47:48.298Z,66.20
2018-06-28T10:50:17.219Z,63.70
2018-06-28T10:55:15.073Z,64.60
2018-06-28T10:57:44.343Z,61.60
2018-06-28T11:00:13.567Z,65.40
2018-06-28T11:02:42.737Z,67.40
2018-06-28T11:05:11.345Z,65.90
2018-06-28T11:07:40.230Z,62.30
2018-06-28T11:10:09.473Z,62.10
2018-06-28T11:12:38.712Z,64.00
2018-06-28T11:15:07.612Z,64.60
2018-06-28T11:17:36.263Z,65.20
2018-06-28T11:20:04.905Z,59.20
2018-06-28T11:22:41.464Z,62.00
2018-06-28T11:25:10.097Z,58.80
2018-06-28T11:27:38.939Z,59.00
2018-06-28T11:30:08.071Z,57.10
2018-06-28T11:32:36.742Z,60.20
2018-06-28T11:35:05.419Z,56.30
2018-06-28T11:37:34.958Z,53.10
2018-06-28T11:40:03.659Z,53.80
2018-06-28T11:42:32.266Z,54.80
2018-06-28T11:45:00.852Z,53.00
2018-06-28T11:47:29.775Z,56.00
2018-06-28T11:50:01.428Z,56.60
2018-06-28T11:52:30.056Z,54.90
2018-06-28T11:54:58.833Z,56.80
2018-06-28T11:57:27.441Z,57.90
2018-06-28T11:59:56.069Z,51.20
2018-06-28T12:02:24.659Z,57.40
2018-06-28T12:04:53.318Z,52.20
2018-06-28T12:07:21.954Z,54.30
2018-06-28T12:09:50.530Z,50.20
2018-06-28T12:12:19.432Z,53.90
2018-06-28T12:14:48.035Z,50.50
2018-06-28T12:17:16.653Z,50.80
2018-06-28T12:19:45.269Z,50.30
2018-06-28T12:22:14.141Z,50.30
2018-06-28T12:24:42.710Z,49.50
2018-06-28T12:27:11.294Z,50.50
2018-06-28T12:29:39.880Z,47.20
2018-06-28T12:32:08.490Z,48.60
2018-06-28T12:34:37.098Z,50.90
2018-06-28T12:37:05.921Z,49.30
2018-06-28T12:39:34.498Z,46.20
2018-06-28T12:42:03.339Z,48.10
2018-06-28T12:47:39.184Z,51.80
2018-06-28T12:50:08.052Z,51.60
2018-06-28T12:52:45.174Z,48.80
2018-06-28T12:55:15.366Z,52.10
2018-06-28T12:57:44.145Z,49.20
2018-06-28T13:00:13.315Z,50.50
2018-06-28T13:02:42.419Z,50.50
2018-06-28T13:05:12.426Z,48.50
2018-06-28T13:07:41.101Z,50.40
2018-06-28T13:12:39.047Z,49.90
2018-06-28T13:15:27.479Z,49.90
2018-06-28T13:17:59.265Z,51.30
2018-06-28T13:20:27.916Z,50.00
2018-06-28T13:22:56.700Z,49.60
2018-06-28T13:25:25.977Z,47.90
2018-06-28T13:27:54.551Z,50.90
2018-06-28T13:30:23.284Z,52.40
2018-06-28T13:32:52.413Z,49.50
2018-06-28T13:35:21.190Z,48.30
2018-06-28T13:37:50.058Z,53.30
2018-06-28T13:40:18.676Z,49.20
2018-06-28T13:42:51.382Z,47.30
2018-06-28T13:45:19.919Z,50.90
2018-06-28T13:47:48.782Z,50.20
2018-06-28T13:50:17.659Z,50.20
2018-06-28T13:52:46.268Z,48.40
2018-06-28T13:55:14.887Z,49.40
2018-06-28T13:57:43.737Z,48.10
2018-06-28T14:00:12.690Z,48.00
2018-06-28T14:02:41.251Z,50.10
2018-06-28T14:05:10.301Z,48.00
2018-06-28T14:07:38.924Z,49.60
2018-06-28T14:10:07.713Z,48.90
2018-06-28T14:17:34.777Z,47.90
2018-06-28T14:20:04.737Z,46.50
2018-06-28T14:22:33.346Z,47.40
2018-06-28T14:25:02.983Z,47.90
2018-06-28T14:27:32.200Z,48.00
2018-06-28T14:30:01.188Z,46.40
2018-06-28T14:32:29.913Z,46.70
2018-06-28T14:34:58.608Z,46.90
2018-06-28T14:37:27.263Z,46.30
2018-06-28T14:39:55.899Z,45.20
2018-06-28T14:42:24.504Z,47.00
2018-06-28T14:44:53.179Z,43.10
2018-06-28T14:47:22.000Z,45.30
2018-06-28T14:49:51.098Z,43.30
2018-06-28T14:52:19.684Z,44.90
2018-06-28T14:54:48.318Z,42.90
2018-06-28T14:57:17.317Z,43.60
2018-06-28T14:59:46.006Z,45.20
2018-06-28T15:02:14.686Z,43.30
2018-06-28T15:04:43.919Z,43.50
2018-06-28T15:07:12.502Z,42.90
2018-06-28T15:09:41.238Z,43.70
2018-06-28T15:14:38.373Z,44.50
2018-06-28T15:19:35.858Z,44.40
2018-06-28T15:24:33.002Z,44.40
2018-06-28T15:27:01.739Z,42.00
2018-06-28T15:29:30.464Z,42.50
2018-06-28T15:31:59.103Z,42.30
2018-06-28T15:34:27.750Z,42.30
2018-06-28T15:36:56.721Z,42.00
2018-06-28T15:39:25.602Z,41.20
2018-06-28T15:44:22.540Z,41.60
2018-06-28T15:46:51.586Z,40.60
2018-06-28T15:49:20.165Z,41.20
2018-06-28T15:51:49.155Z,39.70
2018-06-28T15:54:17.739Z,41.30
2018-06-28T15:59:15.029Z,42.30
2018-06-28T16:01:44.114Z,40.10
2018-06-28T16:06:41.080Z,39.00
2018-06-28T16:09:10.626Z,39.20
2018-06-28T16:11:39.549Z,41.50
2018-06-28T16:14:08.230Z,39.90
2018-06-28T16:16:37.203Z,40.50
2018-06-28T16:19:06.781Z,40.50
2018-06-28T16:21:35.402Z,39.00
2018-06-28T16:24:04.102Z,40.30
2018-06-28T16:26:32.737Z,40.20
2018-06-28T16:29:01.728Z,39.20
2018-06-28T16:31:30.614Z,40.90
2018-06-28T16:33:59.283Z,41.00
2018-06-28T16:36:28.403Z,40.30
2018-06-28T16:38:57.010Z,41.90
2018-06-28T16:41:25.675Z,41.20
2018-06-28T16:43:54.261Z,42.10
2018-06-28T16:46:22.996Z,41.00
2018-06-28T16:48:52.029Z,40.80
2018-06-28T16:51:20.690Z,40.20
2018-06-28T16:53:49.628Z,39.30
2018-06-28T16:56:18.275Z,40.40
2018-06-28T16:58:46.990Z,39.80
2018-06-28T17:01:15.878Z,38.80
2018-06-28T17:03:44.464Z,40.00
2018-06-28T17:06:13.177Z,39.70
2018-06-28T17:08:42.070Z,41.20
2018-06-28T17:11:10.741Z,42.10
2018-06-28T17:13:39.375Z,44.50
2018-06-28T17:16:07.949Z,44.50
2018-06-28T17:18:37.823Z,47.00
2018-06-28T17:21:06.504Z,47.60
2018-06-28T17:23:35.139Z,49.50
2018-06-28T17:26:03.933Z,49.40
2018-06-28T17:28:32.992Z,51.70
2018-06-28T17:31:01.654Z,53.20
2018-06-28T17:35:58.668Z,55.20
2018-06-28T17:38:27.382Z,56.00
2018-06-28T17:40:56.060Z,59.20
2018-06-28T17:43:24.696Z,61.60
2018-06-28T17:45:53.790Z,63.10
2018-06-28T17:48:22.395Z,63.20
2018-06-28T17:50:51.315Z,65.60
2018-06-28T17:53:20.241Z,65.50
2018-06-28T17:55:49.121Z,66.90
2018-06-28T17:58:18.288Z,67.10
2018-06-28T18:00:47.160Z,67.70
2018-06-28T18:03:15.553Z,69.80
2018-06-28T18:05:44.490Z,71.20
2018-06-28T18:08:13.436Z,71.20
2018-06-28T18:10:42.329Z,74.50
2018-06-28T18:13:11.281Z,76.50
2018-06-28T18:15:40.194Z,75.40
2018-06-28T18:18:09.326Z,75.90
2018-06-28T18:20:38.243Z,75.50
2018-06-28T18:23:07.167Z,76.40
2018-06-28T18:28:05.563Z,78.30
2018-06-28T18:30:34.547Z,81.70
2018-06-28T18:33:03.514Z,84.10
2018-06-28T18:35:32.692Z,84.10
2018-06-28T18:38:02.475Z,85.80
2018-06-28T18:40:31.655Z,85.80
2018-06-28T18:43:00.681Z,88.10
2018-06-28T18:45:30.024Z,86.20
2018-06-28T18:47:58.977Z,87.60
2018-06-28T18:50:28.004Z,87.50
2018-06-28T18:52:57.123Z,90.60
2018-06-28T18:55:26.052Z,90.40
2018-06-28T18:57:55.016Z,90.30
2018-06-28T19:00:24.012Z,89.60
2018-06-28T19:02:53.704Z,90.20
2018-06-28T19:05:22.734Z,89.80
2018-06-28T19:07:51.827Z,90.50
2018-06-28T19:10:26.533Z,91.40
2018-06-28T19:12:55.543Z,92.00
2018-06-28T19:15:30.054Z,92.00
2018-06-28T19:17:59.030Z,91.40
2018-06-28T19:20:31.143Z,91.80
2018-06-28T19:23:05.481Z,92.30
2018-06-28T19:25:34.434Z,92.20
2018-06-28T19:28:03.573Z,93.10
2018-06-28T19:30:37.883Z,94.00
2018-06-28T19:33:07.218Z,94.00
2018-06-28T19:35:36.490Z,94.40
2018-06-28T19:38:05.962Z,94.90
2018-06-28T19:40:40.322Z,94.90
2018-06-28T19:43:09.934Z,95.50
2018-06-28T19:45:39.038Z,95.20
2018-06-28T19:50:45.903Z,95.10
2018-06-28T19:53:16.648Z,95.60
2018-06-28T19:55:45.889Z,96.70
2018-06-28T19:58:14.934Z,96.90
2018-06-28T20:00:49.343Z,96.90
2018-06-28T20:03:23.141Z,97.20
2018-06-28T20:05:52.404Z,96.70
2018-06-28T20:08:21.414Z,97.40
2018-06-28T20:10:50.481Z,97.00
2018-06-28T20:13:24.810Z,97.10
2018-06-28T20:15:59.526Z,97.70
2018-06-28T20:18:34.441Z,98.50
2018-06-28T20:21:04.252Z,98.40
2018-06-28T20:23:33.829Z,99.00
2018-06-28T20:26:08.098Z,98.60
2018-06-28T20:28:43.206Z,99.00
2018-06-28T20:31:17.643Z,98.50
2018-06-28T20:33:51.941Z,98.80
2018-06-28T20:38:53.098Z,99.00
2018-06-28T20:41:22.088Z,98.50
2018-06-28T20:43:51.197Z,99.30
2018-06-28T20:46:20.182Z,98.50
2018-06-28T20:48:49.393Z,98.40
2018-06-28T20:51:18.299Z,98.70
2018-06-28T20:53:47.293Z,98.50
2018-06-28T20:56:16.175Z,99.40
2018-06-28T20:58:46.670Z,99.10
2018-06-28T21:01:15.711Z,99.40
2018-06-28T21:03:44.681Z,99.00
2018-06-28T21:06:13.532Z,98.50
2018-06-28T21:08:42.462Z,99.90
2018-06-28T21:11:11.380Z,99.50
2018-06-28T21:13:40.288Z,99.90
2018-06-28T21:16:09.503Z,99.50
2018-06-28T21:18:38.378Z,99.60
2018-06-28T21:21:07.959Z,99.40
2018-06-28T21:23:37.020Z,99.60
2018-06-28T21:26:05.859Z,99.90
2018-06-28T21:28:34.137Z,99.90
2018-06-28T21:31:03.327Z,99.90
2018-06-28T21:33:32.186Z,99.90
2018-06-28T21:36:01.039Z,99.90
2018-06-28T21:38:29.900Z,99.90
2018-06-28T21:40:58.763Z,99.90
2018-06-28T21:43:27.924Z,99.90
2018-06-28T21:45:57.317Z,99.90
2018-06-28T21:48:25.604Z,99.90
2018-06-28T21:50:54.441Z,99.90
2018-06-28T21:53:23.302Z,99.90
2018-06-28T21:58:19.842Z,99.90
2018-06-28T22:00:48.123Z,99.90
2018-06-28T22:03:16.967Z,99.90
2018-06-28T22:05:45.633Z,99.90
2018-06-28T22:10:42.513Z,99.90
2018-06-28T22:13:11.117Z,99.90
2018-06-28T22:15:39.594Z,99.90
2018-06-28T22:18:08.311Z,99.90
2018-06-28T22:20:36.636Z,99.90
2018-06-28T22:23:04.978Z,99.90
2018-06-28T22:25:33.225Z,99.90
2018-06-28T22:28:01.867Z,99.90
2018-06-28T22:30:30.186Z,99.90
2018-06-28T22:32:58.447Z,99.90
2018-06-28T22:35:26.761Z,99.90
2018-06-28T22:37:55.637Z,99.90
2018-06-28T22:40:24.073Z,99.90
2018-06-28T22:42:52.428Z,99.90
2018-06-28T22:45:20.708Z,99.90
2018-06-28T22:47:49.329Z,99.90
2018-06-28T22:50:17.618Z,99.90
2018-06-28T22:52:45.914Z,99.90
2018-06-28T22:55:14.193Z,99.90
2018-06-28T22:57:42.554Z,99.90
2018-06-28T23:00:10.825Z,99.90
2018-06-28T23:02:39.615Z,99.90
2018-06-28T23:05:08.162Z,99.90
2018-06-28T23:07:36.463Z,99.90
2018-06-28T23:10:04.748Z,99.90
2018-06-28T23:12:33.041Z,99.90
2018-06-28T23:15:01.319Z,99.90
2018-06-28T23:17:29.730Z,99.90
2018-06-28T23:19:58.175Z,99.90
2018-06-28T23:22:45.193Z,99.90
2018-06-28T23:25:14.840Z,99.90
2018-06-28T23:27:44.217Z,99.90
2018-06-28T23:30:13.017Z,99.90
2018-06-28T23:32:41.492Z,99.90
2018-06-28T23:35:09.858Z,99.90
2018-06-28T23:37:38.123Z,99.90
2018-06-28T23:42:35.531Z,99.90
2018-06-28T23:45:04.158Z,99.90
2018-06-28T23:47:32.420Z,99.90
2018-06-28T23:50:01.028Z,99.90
2018-06-28T23:52:29.252Z,99.90
2018-06-28T23:54:57.512Z,99.90
2018-06-28T23:57:25.798Z,99.90
2018-06-28T23:59:54.060Z,99.90
